Wilmington, OH

12:27 PM EDT on July 25, 2016 (GMT -0400)
2.2 N Wilmington | | Change Station
Active Advisory: Heat Advisory

Elev 1053 ft 39.47 °N, 83.84 °W | Updated 22 seconds ago

Partly Cloudy
Partly Cloudy
86.6 °F
Feels Like 96 °F
N
4.0
Wind Variable Wind from West
Gusts 7.0 mph

Today
High -- | Low -- °F
--% Chance of Precip.
Yesterday
High -- | Low -- °F
Precip. -- in
Pressure 29.98 in
Visibility 9.0 miles
Clouds Few 2500 ft
Heat Index 96 °F
Dew Point 75 °F
Humidity 68%
Rainfall 0.00 in
Snow Depth Not available.
6:29 AM 8:53 PM
Waning Gibbous, 64% visible
METAR KILN 251554Z AUTO 25010KT 9SM FEW025 31/23 A3002 RMK AO2 SLP150 T03060233
Pressure 29.98 in
Visibility 9.0 miles
Clouds Few 2500 ft
Heat Index 96 °F
Dew Point 75 °F
Humidity 68%
Rainfall 0.00 in
Snow Depth Not available.
6:29 AM 8:53 PM
Waning Gibbous, 64% visible
METAR KILN 251554Z AUTO 25010KT 9SM FEW025 31/23 A3002 RMK AO2 SLP150 T03060233

10-Day Weather Forecast

Almanac

Astronomy

Jul. 25, 2016 Rise Set
Actual Time
Civil Twilight
Nautical Twilight
Astronomical Twilight
Moon
Length of Visible Light
Length of Day
Tomorrow will be .
, % of the Moon is Illuminated

Today's Extremes

State Highs State Lows

Community

WunderPhotos

Upload Photos

1,927,345 photos uploaded!

WunderBlog® & News

Nearby

Air Quality

  Air Quality AQ Index Pollutant
Not available.

Snow Depth

Station Depth Elevation

Earthquake Activity

City Distance Mag. Time & Date
Minimum magnitude displayed is 2.5.

Coastal Water Temperatures

Place Temperature

Stations

Nearby Weather Stations

Station Location Temp. Windchill Dew Point Humidity Wind Precip. Elev Updated Type
                   

Watches & Warnings

Heat Advisory
Issued: 10:53 AM EDT Jul. 25, 2016 – National Weather Service

... Heat advisory in effect until 8 PM EDT this evening...

The National Weather Service in Wilmington has issued a heat
advisory... which is in effect until 8 PM EDT this evening.

* Heat index values... around 100 due to temperatures in the lower
90s... and dewpoints in the lower to middle 70s.

* Timing... highest temperatures and heat indices will occur
during the afternoon to early evening hours.

* Impacts... heat stroke... heat exhaustion and other heat related
illnesses will be possible... especially if you spend a
significant amount of time outdoors... or are involved in any
strenuous outdoor activity.

Precautionary/preparedness actions...

Reduce outdoor activities... especially from mid-morning through
the afternoon. Wear light weight and loose fitting clothing and
drink plenty of water. If possible... spend more time in air
conditioned or well ventilated places.

To reduce risk during outdoor work the occupational safety and
health administration recommends scheduling frequent rest breaks
in shaded or air conditioned environments. Anyone overcome by
heat should be moved to a cool and shaded location. Heat stroke
is an emergency... call 911.